Hlavní strana
METAR-TAF:

METAR-TAF

Letiště :

Castellón de la Plana, Španělsko

zeměpisná šířka: 40-12-35N, zeměpisná délka: 0-04-11E, výška: 360 m

Aktuální stav počasí

Zpráva byla vytvořena před 33 minutami, v 02:30 UTC
Bezvětří
Teplota 8°C
Vlhkost vzduchu 100%
Tlak 1014 hPa
Viditelnost: 8000 m
Zataženo ve výšce 5000 ft
slabý déšť

METAR: LECH 080230Z AUTO 00000KT 8000 -RA OVC050 08/08 Q1014

Čas: 04:03 (03:03 UTC)


TAF: chybějící

Stav a předpovědi počasí z více než 4 000 letišť (zprávy METAR a TAF).

Červené a žluté tečky na mapě představují dostupné meteorologické stanice.

Když kurzor umístíte na tečku, zobrazí se název stanice.

Pak kliknutím zobrazíte stav a předpověď počasí.

Chcete-li změnit mapu, kliknutím na zelené tlačítko se znaménkem +mapu přiblížíte, kliknutím na zelené tlačítko se znaménkem – mapu oddálíte a kliknutím na zelené šipky přejdete na sousední mapy.


METAR-TAF: